sensor_id;sensor_type;location;lat;lon;timestamp;P1;durP1;ratioP1;P2;durP2;ratioP2
1879;SDS011;49285;49.002;8.390;2023-02-28T00:00:25;6.00;;;4.97;;
1879;SDS011;49285;49.002;8.390;2023-02-28T00:02:51;5.90;;;4.50;;
1879;SDS011;49285;49.002;8.390;2023-02-28T00:05:17;8.03;;;4.73;;
1879;SDS011;49285;49.002;8.390;2023-02-28T00:07:45;7.20;;;4.87;;
1879;SDS011;49285;49.002;8.390;2023-02-28T00:10:12;5.50;;;5.00;;
1879;SDS011;49285;49.002;8.390;2023-02-28T00:12:40;8.37;;;5.77;;
1879;SDS011;49285;49.002;8.390;2023-02-28T00:15:07;5.37;;;4.47;;
1879;SDS011;49285;49.002;8.390;2023-02-28T00:17:33;5.90;;;5.30;;
1879;SDS011;49285;49.002;8.390;2023-02-28T00:19:59;5.10;;;4.60;;
1879;SDS011;49285;49.002;8.390;2023-02-28T00:22:28;6.23;;;4.97;;
1879;SDS011;49285;49.002;8.390;2023-02-28T00:24:54;7.73;;;5.27;;
1879;SDS011;49285;49.002;8.390;2023-02-28T00:27:19;8.00;;;4.60;;
1879;SDS011;49285;49.002;8.390;2023-02-28T00:29:46;8.80;;;5.50;;
1879;SDS011;49285;49.002;8.390;2023-02-28T00:32:12;6.47;;;4.80;;
1879;SDS011;49285;49.002;8.390;2023-02-28T00:34:38;5.50;;;4.80;;
1879;SDS011;49285;49.002;8.390;2023-02-28T00:37:04;7.50;;;5.00;;
1879;SDS011;49285;49.002;8.390;2023-02-28T00:39:31;5.77;;;4.90;;
1879;SDS011;49285;49.002;8.390;2023-02-28T00:41:57;6.10;;;5.50;;
1879;SDS011;49285;49.002;8.390;2023-02-28T00:44:23;5.70;;;4.53;;
1879;SDS011;49285;49.002;8.390;2023-02-28T00:46:48;5.00;;;4.50;;
1879;SDS011;49285;49.002;8.390;2023-02-28T00:49:14;5.60;;;5.00;;
1879;SDS011;49285;49.002;8.390;2023-02-28T00:51:40;5.27;;;4.77;;
1879;SDS011;49285;49.002;8.390;2023-02-28T00:54:05;6.00;;;5.03;;
1879;SDS011;49285;49.002;8.390;2023-02-28T00:56:31;4.93;;;4.53;;
1879;SDS011;49285;49.002;8.390;2023-02-28T00:58:56;5.80;;;5.17;;
1879;SDS011;49285;49.002;8.390;2023-02-28T01:01:22;5.87;;;4.80;;
1879;SDS011;49285;49.002;8.390;2023-02-28T01:03:47;4.57;;;4.17;;
1879;SDS011;49285;49.002;8.390;2023-02-28T01:06:13;5.73;;;5.13;;
1879;SDS011;49285;49.002;8.390;2023-02-28T01:08:38;6.30;;;5.23;;
1879;SDS011;49285;49.002;8.390;2023-02-28T01:11:08;5.40;;;4.87;;
1879;SDS011;49285;49.002;8.390;2023-02-28T01:13:36;5.50;;;4.90;;
1879;SDS011;49285;49.002;8.390;2023-02-28T01:16:02;5.50;;;4.97;;
1879;SDS011;49285;49.002;8.390;2023-02-28T01:18:28;6.33;;;4.97;;
1879;SDS011;49285;49.002;8.390;2023-02-28T01:20:53;5.83;;;4.50;;
1879;SDS011;49285;49.002;8.390;2023-02-28T01:23:19;5.63;;;5.00;;
1879;SDS011;49285;49.002;8.390;2023-02-28T01:25:48;7.17;;;5.33;;
1879;SDS011;49285;49.002;8.390;2023-02-28T01:28:14;5.77;;;4.80;;
1879;SDS011;49285;49.002;8.390;2023-02-28T01:30:39;6.27;;;4.93;;
1879;SDS011;49285;49.002;8.390;2023-02-28T01:33:05;5.47;;;4.97;;
1879;SDS011;49285;49.002;8.390;2023-02-28T01:35:34;5.30;;;4.80;;
1879;SDS011;49285;49.002;8.390;2023-02-28T01:38:00;9.77;;;4.63;;
1879;SDS011;49285;49.002;8.390;2023-02-28T01:40:27;6.10;;;4.87;;
1879;SDS011;49285;49.002;8.390;2023-02-28T01:42:52;5.60;;;5.00;;
1879;SDS011;49285;49.002;8.390;2023-02-28T01:45:22;6.50;;;5.43;;
1879;SDS011;49285;49.002;8.390;2023-02-28T01:47:52;5.60;;;5.00;;
1879;SDS011;49285;49.002;8.390;2023-02-28T01:50:26;6.63;;;5.00;;
1879;SDS011;49285;49.002;8.390;2023-02-28T01:52:55;5.83;;;4.83;;
1879;SDS011;49285;49.002;8.390;2023-02-28T01:55:24;5.80;;;4.83;;
1879;SDS011;49285;49.002;8.390;2023-02-28T01:57:54;5.27;;;4.77;;
1879;SDS011;49285;49.002;8.390;2023-02-28T02:00:23;4.87;;;4.37;;
1879;SDS011;49285;49.002;8.390;2023-02-28T02:02:52;5.83;;;5.33;;
1879;SDS011;49285;49.002;8.390;2023-02-28T02:05:23;6.10;;;4.90;;
1879;SDS011;49285;49.002;8.390;2023-02-28T02:07:56;5.77;;;5.00;;
1879;SDS011;49285;49.002;8.390;2023-02-28T02:18:46;5.27;;;4.77;;
1879;SDS011;49285;49.002;8.390;2023-02-28T02:37:49;6.07;;;5.40;;
1879;SDS011;49285;49.002;8.390;2023-02-28T02:40:20;7.17;;;4.70;;
1879;SDS011;49285;49.002;8.390;2023-02-28T02:43:01;6.97;;;5.13;;
1879;SDS011;49285;49.002;8.390;2023-02-28T02:45:51;5.73;;;5.03;;
1879;SDS011;49285;49.002;8.390;2023-02-28T02:48:25;10.90;;;5.00;;
1879;SDS011;49285;49.002;8.390;2023-02-28T02:50:55;6.10;;;4.87;;
1879;SDS011;49285;49.002;8.390;2023-02-28T02:53:24;6.93;;;5.70;;
1879;SDS011;49285;49.002;8.390;2023-02-28T02:55:59;6.53;;;5.90;;
1879;SDS011;49285;49.002;8.390;2023-02-28T02:58:29;5.93;;;5.27;;
1879;SDS011;49285;49.002;8.390;2023-02-28T03:01:00;5.77;;;5.17;;
1879;SDS011;49285;49.002;8.390;2023-02-28T03:03:28;6.37;;;5.60;;
1879;SDS011;49285;49.002;8.390;2023-02-28T03:05:59;6.00;;;5.40;;
1879;SDS011;49285;49.002;8.390;2023-02-28T03:08:26;8.00;;;6.00;;
1879;SDS011;49285;49.002;8.390;2023-02-28T03:10:57;5.03;;;4.50;;
1879;SDS011;49285;49.002;8.390;2023-02-28T03:24:49;7.33;;;5.80;;
1879;SDS011;49285;49.002;8.390;2023-02-28T03:32:25;7.63;;;5.70;;
1879;SDS011;49285;49.002;8.390;2023-02-28T03:35:05;6.43;;;5.50;;
1879;SDS011;49285;49.002;8.390;2023-02-28T03:37:37;7.10;;;5.43;;
1879;SDS011;49285;49.002;8.390;2023-02-28T03:40:09;9.77;;;5.27;;
1879;SDS011;49285;49.002;8.390;2023-02-28T03:42:38;7.03;;;5.53;;
1879;SDS011;49285;49.002;8.390;2023-02-28T03:45:19;6.60;;;5.50;;
1879;SDS011;49285;49.002;8.390;2023-02-28T03:47:54;6.47;;;5.77;;
1879;SDS011;49285;49.002;8.390;2023-02-28T03:50:24;6.90;;;5.90;;
1879;SDS011;49285;49.002;8.390;2023-02-28T03:53:11;6.70;;;6.00;;
1879;SDS011;49285;49.002;8.390;2023-02-28T03:55:54;9.03;;;5.70;;
1879;SDS011;49285;49.002;8.390;2023-02-28T03:58:37;7.53;;;5.53;;
1879;SDS011;49285;49.002;8.390;2023-02-28T04:01:32;6.33;;;5.73;;
1879;SDS011;49285;49.002;8.390;2023-02-28T04:04:04;6.17;;;5.60;;
1879;SDS011;49285;49.002;8.390;2023-02-28T04:06:30;8.37;;;6.20;;
1879;SDS011;49285;49.002;8.390;2023-02-28T04:08:57;6.70;;;5.97;;
1879;SDS011;49285;49.002;8.390;2023-02-28T04:14:09;7.37;;;5.30;;
1879;SDS011;49285;49.002;8.390;2023-02-28T04:16:37;6.20;;;5.60;;
1879;SDS011;49285;49.002;8.390;2023-02-28T04:19:06;7.27;;;6.00;;
1879;SDS011;49285;49.002;8.390;2023-02-28T04:21:34;7.47;;;5.60;;
1879;SDS011;49285;49.002;8.390;2023-02-28T04:24:01;7.47;;;5.80;;
1879;SDS011;49285;49.002;8.390;2023-02-28T04:26:31;7.77;;;5.80;;
1879;SDS011;49285;49.002;8.390;2023-02-28T04:28:58;7.80;;;5.10;;
1879;SDS011;49285;49.002;8.390;2023-02-28T04:31:24;7.47;;;6.10;;
1879;SDS011;49285;49.002;8.390;2023-02-28T04:33:50;7.10;;;6.40;;
1879;SDS011;49285;49.002;8.390;2023-02-28T04:36:16;8.50;;;6.27;;
1879;SDS011;49285;49.002;8.390;2023-02-28T04:38:47;7.97;;;6.40;;
1879;SDS011;49285;49.002;8.390;2023-02-28T04:41:13;8.20;;;5.87;;
1879;SDS011;49285;49.002;8.390;2023-02-28T04:43:39;7.63;;;5.77;;
1879;SDS011;49285;49.002;8.390;2023-02-28T04:46:04;7.00;;;6.30;;
1879;SDS011;49285;49.002;8.390;2023-02-28T04:48:31;8.17;;;5.90;;
1879;SDS011;49285;49.002;8.390;2023-02-28T04:51:03;7.07;;;5.87;;
1879;SDS011;49285;49.002;8.390;2023-02-28T04:53:37;5.80;;;5.30;;
1879;SDS011;49285;49.002;8.390;2023-02-28T04:56:05;8.33;;;5.43;;
1879;SDS011;49285;49.002;8.390;2023-02-28T04:58:32;6.63;;;5.93;;
1879;SDS011;49285;49.002;8.390;2023-02-28T05:01:01;8.60;;;6.20;;
1879;SDS011;49285;49.002;8.390;2023-02-28T05:03:29;11.60;;;6.40;;
1879;SDS011;49285;49.002;8.390;2023-02-28T05:05:55;8.13;;;6.10;;
1879;SDS011;49285;49.002;8.390;2023-02-28T05:08:20;6.87;;;6.17;;
1879;SDS011;49285;49.002;8.390;2023-02-28T05:10:46;7.00;;;6.30;;
1879;SDS011;49285;49.002;8.390;2023-02-28T05:13:12;10.87;;;6.40;;
1879;SDS011;49285;49.002;8.390;2023-02-28T05:15:38;8.00;;;6.50;;
1879;SDS011;49285;49.002;8.390;2023-02-28T05:18:04;9.90;;;6.97;;
1879;SDS011;49285;49.002;8.390;2023-02-28T05:20:29;9.40;;;7.30;;
1879;SDS011;49285;49.002;8.390;2023-02-28T05:22:55;8.47;;;7.10;;
1879;SDS011;49285;49.002;8.390;2023-02-28T05:25:22;8.87;;;6.80;;
1879;SDS011;49285;49.002;8.390;2023-02-28T05:27:48;6.77;;;6.07;;
1879;SDS011;49285;49.002;8.390;2023-02-28T05:30:14;6.63;;;5.93;;
1879;SDS011;49285;49.002;8.390;2023-02-28T05:32:40;7.23;;;6.13;;
1879;SDS011;49285;49.002;8.390;2023-02-28T05:35:08;6.80;;;6.10;;
1879;SDS011;49285;49.002;8.390;2023-02-28T05:37:35;8.03;;;6.20;;
1879;SDS011;49285;49.002;8.390;2023-02-28T05:40:00;9.17;;;6.70;;
1879;SDS011;49285;49.002;8.390;2023-02-28T05:42:26;12.17;;;6.80;;
1879;SDS011;49285;49.002;8.390;2023-02-28T05:44:52;8.60;;;6.50;;
1879;SDS011;49285;49.002;8.390;2023-02-28T05:47:17;8.20;;;6.80;;
1879;SDS011;49285;49.002;8.390;2023-02-28T05:49:43;6.60;;;5.90;;
1879;SDS011;49285;49.002;8.390;2023-02-28T05:52:08;6.57;;;5.90;;
1879;SDS011;49285;49.002;8.390;2023-02-28T05:54:34;9.63;;;6.53;;
1879;SDS011;49285;49.002;8.390;2023-02-28T05:56:59;9.00;;;6.63;;
1879;SDS011;49285;49.002;8.390;2023-02-28T05:59:25;7.63;;;6.50;;
1879;SDS011;49285;49.002;8.390;2023-02-28T06:01:51;8.67;;;6.80;;
1879;SDS011;49285;49.002;8.390;2023-02-28T06:04:18;8.10;;;7.00;;
1879;SDS011;49285;49.002;8.390;2023-02-28T06:06:45;8.40;;;7.50;;
1879;SDS011;49285;49.002;8.390;2023-02-28T06:09:14;8.87;;;7.30;;
1879;SDS011;49285;49.002;8.390;2023-02-28T06:11:40;8.60;;;7.43;;
1879;SDS011;49285;49.002;8.390;2023-02-28T06:14:06;8.37;;;6.80;;
1879;SDS011;49285;49.002;8.390;2023-02-28T06:16:33;6.90;;;6.10;;
1879;SDS011;49285;49.002;8.390;2023-02-28T06:19:01;7.70;;;6.90;;
1879;SDS011;49285;49.002;8.390;2023-02-28T06:21:28;8.70;;;6.53;;
1879;SDS011;49285;49.002;8.390;2023-02-28T06:23:54;9.43;;;6.53;;
1879;SDS011;49285;49.002;8.390;2023-02-28T06:26:21;9.63;;;6.83;;
1879;SDS011;49285;49.002;8.390;2023-02-28T06:28:47;8.03;;;6.53;;
1879;SDS011;49285;49.002;8.390;2023-02-28T06:31:14;10.17;;;7.53;;
1879;SDS011;49285;49.002;8.390;2023-02-28T06:33:41;9.47;;;6.87;;
1879;SDS011;49285;49.002;8.390;2023-02-28T06:36:08;8.63;;;7.23;;
1879;SDS011;49285;49.002;8.390;2023-02-28T06:38:35;8.40;;;6.73;;
1879;SDS011;49285;49.002;8.390;2023-02-28T06:41:01;9.73;;;6.60;;
1879;SDS011;49285;49.002;8.390;2023-02-28T06:43:29;9.97;;;6.60;;
1879;SDS011;49285;49.002;8.390;2023-02-28T06:45:56;8.63;;;6.87;;
1879;SDS011;49285;49.002;8.390;2023-02-28T06:48:23;7.47;;;6.67;;
1879;SDS011;49285;49.002;8.390;2023-02-28T06:50:49;7.80;;;6.37;;
1879;SDS011;49285;49.002;8.390;2023-02-28T06:53:15;7.97;;;7.17;;
1879;SDS011;49285;49.002;8.390;2023-02-28T06:55:41;7.47;;;6.70;;
1879;SDS011;49285;49.002;8.390;2023-02-28T06:58:07;8.27;;;6.47;;
1879;SDS011;49285;49.002;8.390;2023-02-28T07:00:44;9.53;;;6.97;;
1879;SDS011;49285;49.002;8.390;2023-02-28T07:03:10;8.80;;;6.80;;
1879;SDS011;49285;49.002;8.390;2023-02-28T07:05:37;10.50;;;7.00;;
1879;SDS011;49285;49.002;8.390;2023-02-28T07:08:03;11.07;;;7.00;;
1879;SDS011;49285;49.002;8.390;2023-02-28T07:10:30;8.70;;;6.30;;
1879;SDS011;49285;49.002;8.390;2023-02-28T07:12:59;8.67;;;6.40;;
1879;SDS011;49285;49.002;8.390;2023-02-28T07:15:25;15.73;;;6.83;;
1879;SDS011;49285;49.002;8.390;2023-02-28T07:17:50;10.20;;;6.80;;
1879;SDS011;49285;49.002;8.390;2023-02-28T07:20:16;7.43;;;6.13;;
1879;SDS011;49285;49.002;8.390;2023-02-28T07:22:42;9.57;;;6.80;;
1879;SDS011;49285;49.002;8.390;2023-02-28T07:25:07;15.30;;;7.53;;
1879;SDS011;49285;49.002;8.390;2023-02-28T07:27:34;9.53;;;6.80;;
1879;SDS011;49285;49.002;8.390;2023-02-28T07:29:59;7.60;;;6.70;;
1879;SDS011;49285;49.002;8.390;2023-02-28T07:32:28;8.00;;;7.20;;
1879;SDS011;49285;49.002;8.390;2023-02-28T07:34:54;8.90;;;7.10;;
1879;SDS011;49285;49.002;8.390;2023-02-28T07:37:20;15.57;;;7.93;;
1879;SDS011;49285;49.002;8.390;2023-02-28T07:39:45;11.90;;;8.00;;
1879;SDS011;49285;49.002;8.390;2023-02-28T07:42:11;9.77;;;7.40;;
1879;SDS011;49285;49.002;8.390;2023-02-28T07:44:40;9.63;;;6.67;;
1879;SDS011;49285;49.002;8.390;2023-02-28T07:47:08;11.50;;;7.17;;
1879;SDS011;49285;49.002;8.390;2023-02-28T07:49:35;10.30;;;7.40;;
1879;SDS011;49285;49.002;8.390;2023-02-28T07:52:01;11.77;;;7.60;;
1879;SDS011;49285;49.002;8.390;2023-02-28T07:54:28;10.53;;;7.40;;
1879;SDS011;49285;49.002;8.390;2023-02-28T07:56:54;9.90;;;7.63;;
1879;SDS011;49285;49.002;8.390;2023-02-28T07:59:19;10.30;;;8.27;;
1879;SDS011;49285;49.002;8.390;2023-02-28T08:01:45;8.60;;;7.50;;
1879;SDS011;49285;49.002;8.390;2023-02-28T08:04:11;8.97;;;7.70;;
1879;SDS011;49285;49.002;8.390;2023-02-28T08:06:36;9.43;;;8.00;;
1879;SDS011;49285;49.002;8.390;2023-02-28T08:09:02;8.33;;;7.23;;
1879;SDS011;49285;49.002;8.390;2023-02-28T08:11:28;8.97;;;7.10;;
1879;SDS011;49285;49.002;8.390;2023-02-28T08:13:54;10.20;;;7.40;;
1879;SDS011;49285;49.002;8.390;2023-02-28T08:16:19;12.73;;;7.90;;
1879;SDS011;49285;49.002;8.390;2023-02-28T08:18:47;10.00;;;7.63;;
1879;SDS011;49285;49.002;8.390;2023-02-28T08:21:14;8.43;;;6.83;;
1879;SDS011;49285;49.002;8.390;2023-02-28T08:23:40;10.03;;;7.60;;
1879;SDS011;49285;49.002;8.390;2023-02-28T08:26:05;10.40;;;7.37;;
1879;SDS011;49285;49.002;8.390;2023-02-28T08:28:31;11.30;;;8.07;;
1879;SDS011;49285;49.002;8.390;2023-02-28T08:30:57;8.90;;;7.93;;
1879;SDS011;49285;49.002;8.390;2023-02-28T08:33:23;9.80;;;7.47;;
1879;SDS011;49285;49.002;8.390;2023-02-28T08:35:51;11.20;;;7.83;;
1879;SDS011;49285;49.002;8.390;2023-02-28T08:38:19;13.57;;;8.13;;
1879;SDS011;49285;49.002;8.390;2023-02-28T08:40:44;9.83;;;7.83;;
1879;SDS011;49285;49.002;8.390;2023-02-28T08:43:10;9.20;;;7.77;;
1879;SDS011;49285;49.002;8.390;2023-02-28T08:45:35;10.60;;;8.53;;
1879;SDS011;49285;49.002;8.390;2023-02-28T08:48:01;14.33;;;9.03;;
1879;SDS011;49285;49.002;8.390;2023-02-28T08:50:27;11.27;;;8.30;;
1879;SDS011;49285;49.002;8.390;2023-02-28T08:52:52;9.93;;;8.27;;
1879;SDS011;49285;49.002;8.390;2023-02-28T08:55:18;12.77;;;8.30;;
1879;SDS011;49285;49.002;8.390;2023-02-28T08:57:43;10.73;;;9.00;;
1879;SDS011;49285;49.002;8.390;2023-02-28T09:00:09;13.47;;;8.27;;
1879;SDS011;49285;49.002;8.390;2023-02-28T09:02:38;10.40;;;8.33;;
1879;SDS011;49285;49.002;8.390;2023-02-28T09:05:04;11.30;;;9.47;;
1879;SDS011;49285;49.002;8.390;2023-02-28T09:07:30;11.80;;;8.60;;
1879;SDS011;49285;49.002;8.390;2023-02-28T09:09:55;11.37;;;8.40;;
1879;SDS011;49285;49.002;8.390;2023-02-28T09:12:23;11.23;;;8.27;;
1879;SDS011;49285;49.002;8.390;2023-02-28T09:14:50;9.90;;;7.80;;
1879;SDS011;49285;49.002;8.390;2023-02-28T09:17:15;11.30;;;8.60;;
1879;SDS011;49285;49.002;8.390;2023-02-28T09:19:41;11.30;;;8.20;;
1879;SDS011;49285;49.002;8.390;2023-02-28T09:22:07;11.47;;;8.50;;
1879;SDS011;49285;49.002;8.390;2023-02-28T09:24:35;10.43;;;8.03;;
1879;SDS011;49285;49.002;8.390;2023-02-28T09:27:01;10.47;;;8.63;;
1879;SDS011;49285;49.002;8.390;2023-02-28T09:29:26;13.30;;;9.30;;
1879;SDS011;49285;49.002;8.390;2023-02-28T09:31:52;11.13;;;8.50;;
1879;SDS011;49285;49.002;8.390;2023-02-28T09:34:17;9.47;;;7.60;;
1879;SDS011;49285;49.002;8.390;2023-02-28T09:36:43;10.27;;;9.13;;
1879;SDS011;49285;49.002;8.390;2023-02-28T09:39:08;13.47;;;9.10;;
1879;SDS011;49285;49.002;8.390;2023-02-28T09:41:41;12.20;;;9.77;;
1879;SDS011;49285;49.002;8.390;2023-02-28T09:46:57;11.10;;;9.93;;
1879;SDS011;49285;49.002;8.390;2023-02-28T09:49:33;15.47;;;9.80;;
1879;SDS011;49285;49.002;8.390;2023-02-28T09:52:06;11.53;;;8.60;;
1879;SDS011;49285;49.002;8.390;2023-02-28T09:54:37;13.00;;;9.10;;
1879;SDS011;49285;49.002;8.390;2023-02-28T10:02:49;11.27;;;9.23;;
1879;SDS011;49285;49.002;8.390;2023-02-28T10:05:30;19.97;;;10.67;;
1879;SDS011;49285;49.002;8.390;2023-02-28T10:10:46;12.97;;;9.30;;
1879;SDS011;49285;49.002;8.390;2023-02-28T10:13:17;13.00;;;9.47;;
1879;SDS011;49285;49.002;8.390;2023-02-28T10:15:50;11.83;;;9.43;;
1879;SDS011;49285;49.002;8.390;2023-02-28T10:18:21;11.27;;;8.97;;
1879;SDS011;49285;49.002;8.390;2023-02-28T10:20:50;11.93;;;9.77;;
1879;SDS011;49285;49.002;8.390;2023-02-28T10:23:25;11.83;;;9.83;;
1879;SDS011;49285;49.002;8.390;2023-02-28T10:26:18;14.30;;;9.87;;
1879;SDS011;49285;49.002;8.390;2023-02-28T10:28:43;59.13;;;13.30;;
1879;SDS011;49285;49.002;8.390;2023-02-28T10:31:11;15.73;;;9.80;;
1879;SDS011;49285;49.002;8.390;2023-02-28T10:33:42;11.90;;;9.30;;
1879;SDS011;49285;49.002;8.390;2023-02-28T10:36:10;11.00;;;9.07;;
1879;SDS011;49285;49.002;8.390;2023-02-28T10:38:43;13.93;;;9.03;;
1879;SDS011;49285;49.002;8.390;2023-02-28T10:41:11;19.57;;;10.17;;
1879;SDS011;49285;49.002;8.390;2023-02-28T10:43:51;17.13;;;9.40;;
1879;SDS011;49285;49.002;8.390;2023-02-28T10:46:18;14.40;;;10.60;;
1879;SDS011;49285;49.002;8.390;2023-02-28T10:48:59;9.90;;;8.90;;
1879;SDS011;49285;49.002;8.390;2023-02-28T10:51:37;10.93;;;9.40;;
1879;SDS011;49285;49.002;8.390;2023-02-28T10:54:04;11.73;;;9.23;;
1879;SDS011;49285;49.002;8.390;2023-02-28T10:56:30;13.07;;;9.37;;
1879;SDS011;49285;49.002;8.390;2023-02-28T11:04:01;13.17;;;10.00;;
1879;SDS011;49285;49.002;8.390;2023-02-28T11:06:31;12.03;;;9.83;;
1879;SDS011;49285;49.002;8.390;2023-02-28T11:11:26;11.87;;;9.77;;
1879;SDS011;49285;49.002;8.390;2023-02-28T11:13:58;12.53;;;9.03;;
1879;SDS011;49285;49.002;8.390;2023-02-28T11:16:33;13.60;;;10.30;;
1879;SDS011;49285;49.002;8.390;2023-02-28T11:19:02;16.27;;;11.53;;
1879;SDS011;49285;49.002;8.390;2023-02-28T11:21:31;15.20;;;11.83;;
1879;SDS011;49285;49.002;8.390;2023-02-28T11:26:49;10.17;;;9.03;;
1879;SDS011;49285;49.002;8.390;2023-02-28T11:31:49;15.80;;;11.30;;
1879;SDS011;49285;49.002;8.390;2023-02-28T11:34:43;13.03;;;10.27;;
1879;SDS011;49285;49.002;8.390;2023-02-28T11:37:11;13.37;;;10.63;;
1879;SDS011;49285;49.002;8.390;2023-02-28T11:39:39;14.00;;;9.17;;
1879;SDS011;49285;49.002;8.390;2023-02-28T11:47:32;12.13;;;10.40;;
1879;SDS011;49285;49.002;8.390;2023-02-28T11:50:04;12.90;;;10.00;;
1879;SDS011;49285;49.002;8.390;2023-02-28T11:52:47;13.73;;;10.53;;
1879;SDS011;49285;49.002;8.390;2023-02-28T11:57:56;14.20;;;11.27;;
1879;SDS011;49285;49.002;8.390;2023-02-28T12:03:55;12.50;;;9.40;;
1879;SDS011;49285;49.002;8.390;2023-02-28T12:09:28;14.97;;;9.20;;
1879;SDS011;49285;49.002;8.390;2023-02-28T12:15:16;12.60;;;9.60;;
1879;SDS011;49285;49.002;8.390;2023-02-28T12:17:56;14.00;;;10.27;;
1879;SDS011;49285;49.002;8.390;2023-02-28T12:23:49;16.50;;;10.87;;
1879;SDS011;49285;49.002;8.390;2023-02-28T12:26:28;12.77;;;10.63;;
1879;SDS011;49285;49.002;8.390;2023-02-28T12:29:17;12.80;;;10.60;;
1879;SDS011;49285;49.002;8.390;2023-02-28T12:31:53;10.40;;;9.30;;
1879;SDS011;49285;49.002;8.390;2023-02-28T12:34:46;11.20;;;9.80;;
1879;SDS011;49285;49.002;8.390;2023-02-28T12:37:14;12.17;;;10.90;;
1879;SDS011;49285;49.002;8.390;2023-02-28T12:39:45;14.40;;;10.77;;
1879;SDS011;49285;49.002;8.390;2023-02-28T12:42:17;12.27;;;10.90;;
1879;SDS011;49285;49.002;8.390;2023-02-28T12:44:49;11.73;;;10.50;;
1879;SDS011;49285;49.002;8.390;2023-02-28T12:47:19;11.30;;;10.20;;
1879;SDS011;49285;49.002;8.390;2023-02-28T12:49:49;15.10;;;11.47;;
1879;SDS011;49285;49.002;8.390;2023-02-28T12:52:20;11.47;;;10.37;;
1879;SDS011;49285;49.002;8.390;2023-02-28T12:57:49;11.57;;;10.30;;
1879;SDS011;49285;49.002;8.390;2023-02-28T13:00:24;13.53;;;12.23;;
1879;SDS011;49285;49.002;8.390;2023-02-28T13:06:27;15.00;;;11.27;;
1879;SDS011;49285;49.002;8.390;2023-02-28T13:09:17;13.07;;;11.53;;
1879;SDS011;49285;49.002;8.390;2023-02-28T13:11:50;11.13;;;9.90;;
1879;SDS011;49285;49.002;8.390;2023-02-28T13:17:00;11.83;;;10.60;;
1879;SDS011;49285;49.002;8.390;2023-02-28T13:19:43;11.10;;;10.00;;
1879;SDS011;49285;49.002;8.390;2023-02-28T13:22:16;11.40;;;10.30;;
1879;SDS011;49285;49.002;8.390;2023-02-28T13:24:54;12.17;;;11.07;;
1879;SDS011;49285;49.002;8.390;2023-02-28T13:27:34;11.57;;;10.37;;
1879;SDS011;49285;49.002;8.390;2023-02-28T13:38:36;13.87;;;10.70;;
1879;SDS011;49285;49.002;8.390;2023-02-28T13:44:09;13.00;;;11.70;;
1879;SDS011;49285;49.002;8.390;2023-02-28T14:00:07;11.90;;;10.73;;
1879;SDS011;49285;49.002;8.390;2023-02-28T14:02:55;15.97;;;11.20;;
1879;SDS011;49285;49.002;8.390;2023-02-28T14:05:32;11.27;;;10.17;;
1879;SDS011;49285;49.002;8.390;2023-02-28T14:08:03;16.90;;;11.23;;
1879;SDS011;49285;49.002;8.390;2023-02-28T14:10:35;12.30;;;10.70;;
1879;SDS011;49285;49.002;8.390;2023-02-28T14:13:14;14.80;;;11.73;;
1879;SDS011;49285;49.002;8.390;2023-02-28T14:16:10;20.17;;;11.63;;
1879;SDS011;49285;49.002;8.390;2023-02-28T14:18:40;12.33;;;11.13;;
1879;SDS011;49285;49.002;8.390;2023-02-28T14:21:26;13.80;;;12.33;;
1879;SDS011;49285;49.002;8.390;2023-02-28T14:24:08;15.37;;;12.30;;
1879;SDS011;49285;49.002;8.390;2023-02-28T14:37:52;14.20;;;12.30;;
1879;SDS011;49285;49.002;8.390;2023-02-28T14:40:29;13.20;;;11.90;;
1879;SDS011;49285;49.002;8.390;2023-02-28T14:42:58;28.83;;;12.73;;
1879;SDS011;49285;49.002;8.390;2023-02-28T14:45:29;16.70;;;12.07;;
1879;SDS011;49285;49.002;8.390;2023-02-28T14:47:57;16.70;;;11.90;;
1879;SDS011;49285;49.002;8.390;2023-02-28T14:50:30;25.70;;;12.20;;
1879;SDS011;49285;49.002;8.390;2023-02-28T14:52:58;24.50;;;12.90;;
1879;SDS011;49285;49.002;8.390;2023-02-28T14:55:33;13.70;;;11.23;;
1879;SDS011;49285;49.002;8.390;2023-02-28T14:58:01;15.70;;;11.70;;
1879;SDS011;49285;49.002;8.390;2023-02-28T15:00:32;18.20;;;11.57;;
1879;SDS011;49285;49.002;8.390;2023-02-28T15:02:59;27.83;;;13.93;;
1879;SDS011;49285;49.002;8.390;2023-02-28T15:05:30;73.03;;;18.30;;
1879;SDS011;49285;49.002;8.390;2023-02-28T15:08:02;29.03;;;15.20;;
1879;SDS011;49285;49.002;8.390;2023-02-28T15:10:36;47.20;;;14.33;;
1879;SDS011;49285;49.002;8.390;2023-02-28T15:13:06;14.47;;;11.33;;
1879;SDS011;49285;49.002;8.390;2023-02-28T15:15:50;48.17;;;15.70;;
1879;SDS011;49285;49.002;8.390;2023-02-28T15:20:51;29.73;;;12.93;;
1879;SDS011;49285;49.002;8.390;2023-02-28T15:23:17;115.23;;;26.83;;
1879;SDS011;49285;49.002;8.390;2023-02-28T15:25:46;20.73;;;12.57;;
1879;SDS011;49285;49.002;8.390;2023-02-28T15:28:14;31.20;;;13.03;;
1879;SDS011;49285;49.002;8.390;2023-02-28T15:31:00;19.87;;;12.37;;
1879;SDS011;49285;49.002;8.390;2023-02-28T15:33:31;12.63;;;11.33;;
1879;SDS011;49285;49.002;8.390;2023-02-28T15:38:38;16.47;;;13.47;;
1879;SDS011;49285;49.002;8.390;2023-02-28T15:41:03;13.10;;;11.20;;
1879;SDS011;49285;49.002;8.390;2023-02-28T15:43:34;12.57;;;11.27;;
1879;SDS011;49285;49.002;8.390;2023-02-28T15:46:02;14.70;;;12.20;;
1879;SDS011;49285;49.002;8.390;2023-02-28T15:48:34;14.53;;;12.13;;
1879;SDS011;49285;49.002;8.390;2023-02-28T15:53:36;13.57;;;11.13;;
1879;SDS011;49285;49.002;8.390;2023-02-28T15:56:26;13.93;;;12.43;;
1879;SDS011;49285;49.002;8.390;2023-02-28T15:58:57;12.70;;;10.57;;
1879;SDS011;49285;49.002;8.390;2023-02-28T16:01:26;15.30;;;11.70;;
1879;SDS011;49285;49.002;8.390;2023-02-28T16:03:59;11.77;;;10.57;;
1879;SDS011;49285;49.002;8.390;2023-02-28T16:09:03;12.80;;;11.40;;
1879;SDS011;49285;49.002;8.390;2023-02-28T16:11:32;15.30;;;11.50;;
1879;SDS011;49285;49.002;8.390;2023-02-28T16:13:59;16.27;;;12.80;;
1879;SDS011;49285;49.002;8.390;2023-02-28T16:16:24;13.43;;;11.87;;
1879;SDS011;49285;49.002;8.390;2023-02-28T16:18:51;13.07;;;11.20;;
1879;SDS011;49285;49.002;8.390;2023-02-28T16:21:17;16.10;;;12.37;;
1879;SDS011;49285;49.002;8.390;2023-02-28T16:23:43;14.30;;;11.77;;
1879;SDS011;49285;49.002;8.390;2023-02-28T16:26:10;16.27;;;12.60;;
1879;SDS011;49285;49.002;8.390;2023-02-28T16:28:49;15.33;;;12.33;;
1879;SDS011;49285;49.002;8.390;2023-02-28T16:31:16;15.30;;;12.73;;
1879;SDS011;49285;49.002;8.390;2023-02-28T16:33:42;13.70;;;12.20;;
1879;SDS011;49285;49.002;8.390;2023-02-28T16:36:13;13.00;;;11.70;;
1879;SDS011;49285;49.002;8.390;2023-02-28T16:38:44;13.70;;;11.87;;
1879;SDS011;49285;49.002;8.390;2023-02-28T16:41:11;12.63;;;11.10;;
1879;SDS011;49285;49.002;8.390;2023-02-28T16:43:43;13.23;;;11.63;;
1879;SDS011;49285;49.002;8.390;2023-02-28T16:46:10;13.50;;;12.03;;
1879;SDS011;49285;49.002;8.390;2023-02-28T16:48:37;13.57;;;11.00;;
1879;SDS011;49285;49.002;8.390;2023-02-28T16:51:04;14.37;;;11.80;;
1879;SDS011;49285;49.002;8.390;2023-02-28T16:53:30;13.60;;;11.33;;
1879;SDS011;49285;49.002;8.390;2023-02-28T16:55:55;15.37;;;12.87;;
1879;SDS011;49285;49.002;8.390;2023-02-28T16:58:21;12.57;;;11.20;;
1879;SDS011;49285;49.002;8.390;2023-02-28T17:00:50;12.60;;;11.37;;
1879;SDS011;49285;49.002;8.390;2023-02-28T17:03:24;12.30;;;11.00;;
1879;SDS011;49285;49.002;8.390;2023-02-28T17:05:52;13.77;;;11.60;;
1879;SDS011;49285;49.002;8.390;2023-02-28T17:08:18;16.30;;;12.53;;
1879;SDS011;49285;49.002;8.390;2023-02-28T17:10:44;15.10;;;13.50;;
1879;SDS011;49285;49.002;8.390;2023-02-28T17:13:10;12.60;;;11.30;;
1879;SDS011;49285;49.002;8.390;2023-02-28T17:15:35;14.07;;;11.27;;
1879;SDS011;49285;49.002;8.390;2023-02-28T17:18:02;13.47;;;11.50;;
1879;SDS011;49285;49.002;8.390;2023-02-28T17:20:28;13.77;;;11.60;;
1879;SDS011;49285;49.002;8.390;2023-02-28T17:22:54;16.40;;;12.80;;
1879;SDS011;49285;49.002;8.390;2023-02-28T17:25:21;13.73;;;11.67;;
1879;SDS011;49285;49.002;8.390;2023-02-28T17:27:47;16.43;;;12.20;;